createdAt,value
2022-12-06T00:00:46.067Z,6.67
2022-12-06T00:05:48.258Z,6.72
2022-12-06T00:10:50.366Z,6.70
2022-12-06T00:15:52.444Z,6.73
2022-12-06T00:20:54.443Z,6.73
2022-12-06T00:25:56.483Z,6.76
2022-12-06T00:31:03.515Z,6.73
2022-12-06T00:36:12.551Z,6.77
2022-12-06T00:41:16.977Z,6.81
2022-12-06T00:46:22.401Z,6.84
2022-12-06T00:51:27.501Z,6.88
2022-12-06T00:56:29.600Z,6.81
2022-12-06T01:01:33.783Z,6.68
2022-12-06T01:06:37.630Z,6.64
2022-12-06T01:11:40.006Z,6.45
2022-12-06T01:16:42.077Z,6.34
2022-12-06T01:21:44.293Z,6.31
2022-12-06T01:26:46.433Z,6.27
2022-12-06T01:31:48.663Z,6.15
2022-12-06T01:36:50.781Z,6.08
2022-12-06T01:41:53.200Z,5.98
2022-12-06T01:46:55.859Z,5.98
2022-12-06T01:52:07.622Z,5.88
2022-12-06T01:57:13.606Z,5.85
2022-12-06T02:02:16.132Z,5.78
2022-12-06T02:07:20.595Z,5.79
2022-12-06T02:12:22.760Z,5.77
2022-12-06T02:17:46.606Z,5.76
2022-12-06T02:23:10.593Z,5.65
2022-12-06T02:28:46.961Z,5.30
2022-12-06T02:33:55.625Z,5.01
2022-12-06T02:39:08.337Z,4.88
2022-12-06T02:44:19.397Z,4.95
2022-12-06T02:49:23.200Z,5.01
2022-12-06T02:54:27.173Z,4.85
2022-12-06T02:59:29.317Z,4.87
2022-12-06T03:05:15.977Z,4.81
2022-12-06T03:10:46.870Z,4.92
2022-12-06T03:15:58.972Z,5.07
2022-12-06T03:21:24.034Z,5.21
2022-12-06T03:26:31.395Z,5.26
2022-12-06T03:31:39.018Z,5.19
2022-12-06T03:36:44.234Z,5.19
2022-12-06T03:41:54.165Z,5.16
2022-12-06T03:47:07.553Z,5.13
2022-12-06T03:52:10.014Z,5.09
2022-12-06T03:57:12.144Z,5.09
2022-12-06T04:02:14.275Z,5.08
2022-12-06T04:07:21.345Z,5.06
2022-12-06T04:12:43.100Z,5.07
2022-12-06T04:18:03.754Z,5.07
2022-12-06T04:23:05.834Z,5.05
2022-12-06T04:28:26.485Z,5.00
2022-12-06T04:33:47.621Z,4.88
2022-12-06T04:38:49.735Z,4.90
2022-12-06T04:43:51.829Z,4.83
2022-12-06T04:48:53.884Z,4.74
2022-12-06T04:53:55.974Z,4.74
2022-12-06T04:58:58.131Z,4.66
2022-12-06T05:04:00.401Z,4.80
2022-12-06T05:09:03.610Z,4.92
2022-12-06T05:14:05.756Z,4.90
2022-12-06T05:19:07.998Z,5.06
2022-12-06T05:24:10.261Z,5.01
2022-12-06T05:29:12.457Z,5.03
2022-12-06T05:34:14.551Z,5.05
2022-12-06T05:39:16.819Z,5.11
2022-12-06T05:44:18.939Z,5.02
2022-12-06T05:49:21.061Z,4.82
2022-12-06T05:54:23.126Z,4.70
2022-12-06T05:59:25.213Z,4.80
2022-12-06T06:04:27.353Z,4.94
2022-12-06T06:09:29.448Z,4.94
2022-12-06T06:14:31.568Z,4.74
2022-12-06T06:19:33.691Z,4.81
2022-12-06T06:24:37.798Z,4.89
2022-12-06T06:29:45.160Z,4.88
2022-12-06T06:34:47.723Z,4.96
2022-12-06T06:39:50.147Z,4.90
2022-12-06T06:44:54.676Z,4.97
2022-12-06T06:49:56.862Z,4.92
2022-12-06T06:54:59.278Z,4.93
2022-12-06T07:00:01.704Z,5.04
2022-12-06T07:05:04.201Z,5.04
2022-12-06T07:10:07.169Z,5.03
2022-12-06T07:15:09.662Z,5.07
2022-12-06T07:20:11.928Z,5.13
2022-12-06T07:25:14.062Z,5.17
2022-12-06T07:30:17.701Z,5.21
2022-12-06T07:35:21.437Z,5.23
2022-12-06T07:41:02.836Z,5.23
2022-12-06T07:45:54.613Z,5.16
2022-12-06T07:50:56.740Z,5.04
2022-12-06T07:56:05.213Z,5.07
2022-12-06T08:01:07.415Z,5.15
2022-12-06T08:06:09.676Z,5.27
2022-12-06T08:11:11.733Z,5.41
2022-12-06T08:16:14.182Z,5.58
2022-12-06T08:21:16.680Z,5.78
2022-12-06T08:26:18.869Z,5.89
2022-12-06T08:31:23.774Z,5.72
2022-12-06T08:36:26.250Z,5.44
2022-12-06T08:41:47.103Z,5.49
2022-12-06T08:46:49.540Z,5.48
2022-12-06T08:51:52.903Z,5.51
2022-12-06T08:56:55.055Z,6.42
2022-12-06T09:01:57.185Z,6.00
2022-12-06T09:06:59.356Z,5.78
2022-12-06T09:12:01.487Z,5.31
2022-12-06T09:17:03.838Z,4.97
2022-12-06T09:22:05.920Z,4.80
2022-12-06T09:27:07.982Z,5.53
2022-12-06T09:32:10.056Z,5.76
2022-12-06T09:37:13.988Z,6.87
2022-12-06T09:42:19.112Z,7.10
2022-12-06T09:47:58.089Z,7.21
2022-12-06T09:53:12.302Z,6.19
2022-12-06T09:58:32.139Z,6.45
2022-12-06T10:03:50.848Z,6.63
2022-12-06T10:09:14.662Z,6.95
2022-12-06T10:15:00.242Z,6.76
2022-12-06T10:20:31.596Z,7.97
2022-12-06T10:25:46.205Z,7.36
2022-12-06T10:30:53.551Z,8.20
2022-12-06T10:36:05.436Z,10.67
2022-12-06T10:41:18.819Z,19.30
2022-12-06T10:46:55.850Z,20.64
2022-12-06T10:52:22.526Z,21.24
2022-12-06T10:57:49.471Z,21.85
2022-12-06T11:03:03.575Z,18.81
2022-12-06T11:08:24.185Z,19.18
2022-12-06T11:13:49.735Z,18.00
2022-12-06T11:18:56.026Z,17.09
2022-12-06T11:24:48.082Z,21.35
2022-12-06T11:29:51.286Z,18.08
2022-12-06T11:34:57.062Z,15.64
2022-12-06T11:40:22.420Z,14.86
2022-12-06T11:45:32.096Z,14.71
2022-12-06T11:50:36.648Z,11.08
2022-12-06T11:55:44.817Z,8.82
2022-12-06T12:00:57.786Z,8.10
2022-12-06T12:06:27.495Z,7.72
2022-12-06T12:11:32.738Z,7.41
2022-12-06T12:16:37.615Z,7.09
2022-12-06T12:21:42.104Z,7.22
2022-12-06T12:26:44.269Z,7.21
2022-12-06T12:31:54.386Z,6.97
2022-12-06T12:37:00.331Z,7.23
2022-12-06T12:42:02.952Z,6.81
2022-12-06T12:47:17.984Z,6.96
2022-12-06T12:52:31.729Z,6.82
2022-12-06T12:57:33.937Z,6.79
2022-12-06T13:08:10.003Z,12.51
2022-12-06T13:13:20.481Z,10.11
2022-12-06T13:18:24.546Z,11.29
2022-12-06T13:23:32.233Z,9.32
2022-12-06T13:28:43.530Z,12.85
2022-12-06T13:33:52.341Z,9.81
2022-12-06T13:38:56.203Z,7.70
2022-12-06T13:43:58.420Z,7.27
2022-12-06T13:49:23.177Z,7.07
2022-12-06T13:54:30.763Z,7.52
2022-12-06T13:59:36.905Z,9.23
2022-12-06T14:04:41.766Z,7.95
2022-12-06T14:09:49.317Z,6.57
2022-12-06T14:15:00.140Z,8.84
2022-12-06T14:20:04.061Z,9.48
2022-12-06T14:25:25.473Z,9.76
2022-12-06T14:30:27.654Z,10.16
2022-12-06T14:35:36.190Z,8.46
2022-12-06T14:41:02.261Z,7.05
2022-12-06T14:46:07.450Z,6.32
2022-12-06T14:51:24.418Z,5.87
2022-12-06T14:56:34.435Z,5.25
2022-12-06T15:01:47.371Z,4.94
2022-12-06T15:06:55.831Z,4.91
2022-12-06T15:12:40.034Z,4.82
2022-12-06T15:17:42.814Z,4.83
2022-12-06T15:22:46.389Z,5.02
2022-12-06T15:27:48.430Z,4.86
2022-12-06T15:32:50.514Z,4.56
2022-12-06T15:37:52.602Z,4.52
2022-12-06T15:42:59.098Z,4.30
2022-12-06T15:48:04.399Z,4.24
2022-12-06T15:53:06.871Z,4.21
2022-12-06T15:58:08.998Z,4.35
2022-12-06T16:03:11.260Z,4.37
2022-12-06T16:08:13.547Z,4.21
2022-12-06T16:13:21.594Z,4.14
2022-12-06T16:18:23.958Z,3.83
2022-12-06T16:24:12.527Z,3.91
2022-12-06T16:29:16.459Z,4.02
2022-12-06T16:34:19.155Z,4.14
2022-12-06T16:39:21.376Z,4.00
2022-12-06T16:44:23.587Z,4.16
2022-12-06T16:49:48.374Z,3.97
2022-12-06T16:54:51.174Z,4.08
2022-12-06T16:59:55.864Z,3.63
2022-12-06T17:05:01.308Z,3.73
2022-12-06T17:10:04.633Z,3.44
2022-12-06T17:15:07.827Z,3.47
2022-12-06T17:20:12.030Z,3.24
2022-12-06T17:25:16.203Z,3.11
2022-12-06T17:30:18.346Z,3.57
2022-12-06T17:35:20.611Z,3.36
2022-12-06T17:40:22.696Z,3.34
2022-12-06T17:45:25.782Z,3.20
2022-12-06T17:50:27.881Z,3.46
2022-12-06T17:55:30.068Z,3.26
2022-12-06T18:00:32.159Z,3.28
2022-12-06T18:05:34.510Z,3.46
2022-12-06T18:10:36.723Z,3.53
2022-12-06T18:15:38.849Z,3.61
2022-12-06T18:20:43.106Z,3.52
2022-12-06T18:25:45.195Z,3.78
2022-12-06T18:30:47.362Z,3.65
2022-12-06T18:35:55.095Z,3.63
2022-12-06T18:41:09.207Z,3.41
2022-12-06T18:46:25.908Z,3.23
2022-12-06T18:51:32.244Z,3.21
2022-12-06T18:56:35.175Z,3.16
2022-12-06T19:01:38.980Z,3.04
2022-12-06T19:06:42.762Z,3.03
2022-12-06T19:11:46.371Z,3.01
2022-12-06T19:16:50.211Z,3.20
2022-12-06T19:21:54.346Z,3.22
2022-12-06T19:26:59.704Z,3.05
2022-12-06T19:32:02.541Z,2.85
2022-12-06T19:37:04.691Z,3.01
2022-12-06T19:42:25.566Z,3.15
2022-12-06T19:47:27.698Z,3.35
2022-12-06T19:52:31.116Z,3.35
2022-12-06T19:57:33.382Z,3.49
2022-12-06T20:02:35.543Z,3.40
2022-12-06T20:07:40.841Z,3.17
2022-12-06T20:12:43.015Z,3.29
2022-12-06T20:17:45.480Z,3.31
2022-12-06T20:22:53.874Z,3.56
2022-12-06T20:27:57.261Z,3.48
2022-12-06T20:32:59.503Z,3.34
2022-12-06T20:38:01.571Z,3.12
2022-12-06T20:43:03.680Z,2.77
2022-12-06T20:48:05.997Z,2.54
2022-12-06T20:53:08.092Z,2.29
2022-12-06T20:58:11.113Z,2.39
2022-12-06T21:03:13.443Z,2.50
2022-12-06T21:08:17.685Z,2.47
2022-12-06T21:13:20.285Z,2.64
2022-12-06T21:18:25.611Z,2.72
2022-12-06T21:23:31.493Z,2.55
2022-12-06T21:28:33.577Z,2.21
2022-12-06T21:33:35.784Z,1.92
2022-12-06T21:38:38.084Z,1.86
2022-12-06T21:43:40.365Z,1.79
2022-12-06T21:48:45.445Z,1.84
2022-12-06T21:53:48.452Z,2.01
2022-12-06T21:58:50.894Z,1.99
2022-12-06T22:03:55.139Z,1.94
2022-12-06T22:09:02.642Z,1.63
2022-12-06T22:14:05.577Z,1.72
2022-12-06T22:19:07.687Z,1.70
2022-12-06T22:24:09.862Z,1.90
2022-12-06T22:29:11.995Z,1.86
2022-12-06T22:34:14.323Z,1.98
2022-12-06T22:39:16.488Z,2.02
2022-12-06T22:44:21.858Z,2.36
2022-12-06T22:49:24.149Z,2.43
2022-12-06T22:54:26.297Z,2.45
2022-12-06T22:59:29.424Z,2.62
2022-12-06T23:04:31.567Z,2.71
2022-12-06T23:09:33.759Z,2.85
2022-12-06T23:14:36.052Z,3.04
2022-12-06T23:19:38.144Z,3.08
2022-12-06T23:24:40.374Z,3.06
2022-12-06T23:29:42.449Z,3.11
2022-12-06T23:34:44.509Z,2.97
2022-12-06T23:39:46.707Z,2.92
2022-12-06T23:44:48.778Z,2.40
2022-12-06T23:49:50.875Z,1.97
2022-12-06T23:54:52.982Z,2.10
2022-12-06T23:59:55.109Z,2.31
